sensor_id;sensor_type;location;lat;lon;timestamp;P1;durP1;ratioP1;P2;durP2;ratioP2
76608;SDS011;65928;53.936;27.540;2024-03-08T00:01:06;13.90;;;6.50;;
76608;SDS011;65928;53.936;27.540;2024-03-08T00:03:32;11.93;;;6.53;;
76608;SDS011;65928;53.936;27.540;2024-03-08T00:05:57;9.32;;;6.55;;
76608;SDS011;65928;53.936;27.540;2024-03-08T00:08:23;11.65;;;6.97;;
76608;SDS011;65928;53.936;27.540;2024-03-08T00:10:48;10.57;;;6.65;;
76608;SDS011;65928;53.936;27.540;2024-03-08T00:13:14;13.05;;;9.25;;
76608;SDS011;65928;53.936;27.540;2024-03-08T00:15:39;11.70;;;7.50;;
76608;SDS011;65928;53.936;27.540;2024-03-08T00:18:06;13.13;;;6.63;;
76608;SDS011;65928;53.936;27.540;2024-03-08T00:20:31;15.52;;;7.35;;
76608;SDS011;65928;53.936;27.540;2024-03-08T00:22:57;12.38;;;6.22;;
76608;SDS011;65928;53.936;27.540;2024-03-08T00:25:23;10.65;;;6.00;;
76608;SDS011;65928;53.936;27.540;2024-03-08T00:27:48;8.32;;;5.85;;
76608;SDS011;65928;53.936;27.540;2024-03-08T00:30:14;12.48;;;6.50;;
76608;SDS011;65928;53.936;27.540;2024-03-08T00:32:40;11.95;;;6.63;;
76608;SDS011;65928;53.936;27.540;2024-03-08T00:35:06;13.70;;;5.72;;
76608;SDS011;65928;53.936;27.540;2024-03-08T00:37:34;12.23;;;6.65;;
76608;SDS011;65928;53.936;27.540;2024-03-08T00:40:00;12.23;;;6.78;;
76608;SDS011;65928;53.936;27.540;2024-03-08T00:42:25;8.38;;;5.68;;
76608;SDS011;65928;53.936;27.540;2024-03-08T00:44:51;8.98;;;5.68;;
76608;SDS011;65928;53.936;27.540;2024-03-08T00:47:16;11.82;;;5.47;;
76608;SDS011;65928;53.936;27.540;2024-03-08T00:49:42;9.30;;;5.22;;
76608;SDS011;65928;53.936;27.540;2024-03-08T00:52:08;8.30;;;5.63;;
76608;SDS011;65928;53.936;27.540;2024-03-08T00:54:33;10.35;;;4.95;;
76608;SDS011;65928;53.936;27.540;2024-03-08T00:57:00;13.32;;;5.75;;
76608;SDS011;65928;53.936;27.540;2024-03-08T00:59:27;11.77;;;5.53;;
76608;SDS011;65928;53.936;27.540;2024-03-08T01:01:57;10.73;;;5.63;;
76608;SDS011;65928;53.936;27.540;2024-03-08T01:04:26;10.35;;;4.65;;
76608;SDS011;65928;53.936;27.540;2024-03-08T01:06:54;11.18;;;5.95;;
76608;SDS011;65928;53.936;27.540;2024-03-08T01:09:23;7.93;;;4.55;;
76608;SDS011;65928;53.936;27.540;2024-03-08T01:11:49;10.32;;;5.07;;
76608;SDS011;65928;53.936;27.540;2024-03-08T01:14:14;9.45;;;5.20;;
76608;SDS011;65928;53.936;27.540;2024-03-08T01:16:40;9.18;;;5.20;;
76608;SDS011;65928;53.936;27.540;2024-03-08T01:19:06;10.10;;;5.47;;
76608;SDS011;65928;53.936;27.540;2024-03-08T01:21:31;9.75;;;5.10;;
76608;SDS011;65928;53.936;27.540;2024-03-08T01:23:57;8.55;;;4.75;;
76608;SDS011;65928;53.936;27.540;2024-03-08T01:26:22;10.30;;;4.80;;
76608;SDS011;65928;53.936;27.540;2024-03-08T01:28:48;11.38;;;4.90;;
76608;SDS011;65928;53.936;27.540;2024-03-08T01:31:14;10.57;;;5.65;;
76608;SDS011;65928;53.936;27.540;2024-03-08T01:33:40;7.63;;;5.05;;
76608;SDS011;65928;53.936;27.540;2024-03-08T01:36:06;7.57;;;4.60;;
76608;SDS011;65928;53.936;27.540;2024-03-08T01:38:32;9.65;;;5.07;;
76608;SDS011;65928;53.936;27.540;2024-03-08T01:40:58;11.55;;;5.47;;
76608;SDS011;65928;53.936;27.540;2024-03-08T01:43:27;10.52;;;4.78;;
76608;SDS011;65928;53.936;27.540;2024-03-08T01:45:54;11.93;;;7.63;;
76608;SDS011;65928;53.936;27.540;2024-03-08T01:48:20;32.28;;;15.60;;
76608;SDS011;65928;53.936;27.540;2024-03-08T01:50:49;43.03;;;19.85;;
76608;SDS011;65928;53.936;27.540;2024-03-08T01:53:15;55.15;;;24.95;;
76608;SDS011;65928;53.936;27.540;2024-03-08T01:55:42;15.88;;;8.82;;
76608;SDS011;65928;53.936;27.540;2024-03-08T01:58:10;19.00;;;9.82;;
76608;SDS011;65928;53.936;27.540;2024-03-08T02:00:36;17.10;;;9.00;;
76608;SDS011;65928;53.936;27.540;2024-03-08T02:03:05;12.70;;;6.35;;
76608;SDS011;65928;53.936;27.540;2024-03-08T02:05:30;11.20;;;5.85;;
76608;SDS011;65928;53.936;27.540;2024-03-08T02:07:56;10.23;;;5.60;;
76608;SDS011;65928;53.936;27.540;2024-03-08T02:10:21;10.40;;;5.78;;
76608;SDS011;65928;53.936;27.540;2024-03-08T02:12:47;10.95;;;4.95;;
76608;SDS011;65928;53.936;27.540;2024-03-08T02:15:12;8.90;;;5.07;;
76608;SDS011;65928;53.936;27.540;2024-03-08T02:17:38;8.98;;;5.30;;
76608;SDS011;65928;53.936;27.540;2024-03-08T02:20:03;8.70;;;4.93;;
76608;SDS011;65928;53.936;27.540;2024-03-08T02:22:30;12.75;;;5.35;;
76608;SDS011;65928;53.936;27.540;2024-03-08T02:24:55;7.28;;;4.55;;
76608;SDS011;65928;53.936;27.540;2024-03-08T02:27:24;9.35;;;5.18;;
76608;SDS011;65928;53.936;27.540;2024-03-08T02:29:55;8.55;;;4.68;;
76608;SDS011;65928;53.936;27.540;2024-03-08T02:32:21;8.48;;;5.05;;
76608;SDS011;65928;53.936;27.540;2024-03-08T02:34:50;7.65;;;4.35;;
76608;SDS011;65928;53.936;27.540;2024-03-08T02:37:16;9.02;;;4.32;;
76608;SDS011;65928;53.936;27.540;2024-03-08T02:39:42;9.23;;;4.90;;
76608;SDS011;65928;53.936;27.540;2024-03-08T02:42:07;10.75;;;4.60;;
76608;SDS011;65928;53.936;27.540;2024-03-08T02:44:33;11.80;;;5.28;;
76608;SDS011;65928;53.936;27.540;2024-03-08T02:47:01;7.53;;;4.78;;
76608;SDS011;65928;53.936;27.540;2024-03-08T02:49:26;9.35;;;5.18;;
76608;SDS011;65928;53.936;27.540;2024-03-08T02:51:55;10.05;;;4.97;;
76608;SDS011;65928;53.936;27.540;2024-03-08T02:54:22;10.93;;;5.45;;
76608;SDS011;65928;53.936;27.540;2024-03-08T02:56:47;11.48;;;5.55;;
76608;SDS011;65928;53.936;27.540;2024-03-08T02:59:15;11.05;;;5.15;;
76608;SDS011;65928;53.936;27.540;2024-03-08T03:01:43;10.98;;;4.65;;
76608;SDS011;65928;53.936;27.540;2024-03-08T03:04:08;11.32;;;5.50;;
76608;SDS011;65928;53.936;27.540;2024-03-08T03:06:34;10.82;;;4.97;;
76608;SDS011;65928;53.936;27.540;2024-03-08T03:08:59;14.43;;;5.10;;
76608;SDS011;65928;53.936;27.540;2024-03-08T03:11:24;9.73;;;5.15;;
76608;SDS011;65928;53.936;27.540;2024-03-08T03:13:50;13.55;;;5.70;;
76608;SDS011;65928;53.936;27.540;2024-03-08T03:16:18;11.32;;;5.13;;
76608;SDS011;65928;53.936;27.540;2024-03-08T03:18:47;9.50;;;5.38;;
76608;SDS011;65928;53.936;27.540;2024-03-08T03:21:13;8.23;;;4.05;;
76608;SDS011;65928;53.936;27.540;2024-03-08T03:23:41;8.80;;;4.88;;
76608;SDS011;65928;53.936;27.540;2024-03-08T03:26:07;7.75;;;5.18;;
76608;SDS011;65928;53.936;27.540;2024-03-08T03:28:33;11.68;;;5.07;;
76608;SDS011;65928;53.936;27.540;2024-03-08T03:30:59;10.18;;;5.10;;
76608;SDS011;65928;53.936;27.540;2024-03-08T03:33:24;9.32;;;4.68;;
76608;SDS011;65928;53.936;27.540;2024-03-08T03:35:50;10.38;;;4.93;;
76608;SDS011;65928;53.936;27.540;2024-03-08T03:38:17;9.68;;;3.60;;
76608;SDS011;65928;53.936;27.540;2024-03-08T03:40:42;9.85;;;5.45;;
76608;SDS011;65928;53.936;27.540;2024-03-08T03:43:10;11.07;;;5.97;;
76608;SDS011;65928;53.936;27.540;2024-03-08T03:45:36;11.30;;;6.20;;
76608;SDS011;65928;53.936;27.540;2024-03-08T03:48:02;10.68;;;5.97;;
76608;SDS011;65928;53.936;27.540;2024-03-08T03:50:29;12.13;;;5.72;;
76608;SDS011;65928;53.936;27.540;2024-03-08T03:52:54;13.45;;;5.25;;
76608;SDS011;65928;53.936;27.540;2024-03-08T03:55:19;12.10;;;6.07;;
76608;SDS011;65928;53.936;27.540;2024-03-08T03:57:46;12.05;;;5.97;;
76608;SDS011;65928;53.936;27.540;2024-03-08T04:00:12;9.93;;;5.57;;
76608;SDS011;65928;53.936;27.540;2024-03-08T04:02:38;9.13;;;5.40;;
76608;SDS011;65928;53.936;27.540;2024-03-08T04:05:05;10.63;;;5.95;;
76608;SDS011;65928;53.936;27.540;2024-03-08T04:07:31;10.55;;;5.70;;
76608;SDS011;65928;53.936;27.540;2024-03-08T04:09:56;11.20;;;6.45;;
76608;SDS011;65928;53.936;27.540;2024-03-08T04:12:22;11.40;;;5.57;;
76608;SDS011;65928;53.936;27.540;2024-03-08T04:14:48;12.93;;;5.60;;
76608;SDS011;65928;53.936;27.540;2024-03-08T04:17:13;14.48;;;8.40;;
76608;SDS011;65928;53.936;27.540;2024-03-08T04:19:38;11.30;;;5.70;;
76608;SDS011;65928;53.936;27.540;2024-03-08T04:22:05;33.92;;;17.30;;
76608;SDS011;65928;53.936;27.540;2024-03-08T04:24:32;35.38;;;19.73;;
76608;SDS011;65928;53.936;27.540;2024-03-08T04:26:58;30.50;;;17.92;;
76608;SDS011;65928;53.936;27.540;2024-03-08T04:29:24;40.13;;;21.45;;
76608;SDS011;65928;53.936;27.540;2024-03-08T04:31:49;22.65;;;11.88;;
76608;SDS011;65928;53.936;27.540;2024-03-08T04:34:14;22.73;;;11.18;;
76608;SDS011;65928;53.936;27.540;2024-03-08T04:36:40;18.38;;;10.35;;
76608;SDS011;65928;53.936;27.540;2024-03-08T04:39:05;19.27;;;10.40;;
76608;SDS011;65928;53.936;27.540;2024-03-08T04:41:30;13.82;;;7.07;;
76608;SDS011;65928;53.936;27.540;2024-03-08T04:43:56;24.85;;;10.27;;
76608;SDS011;65928;53.936;27.540;2024-03-08T04:46:23;20.67;;;10.70;;
76608;SDS011;65928;53.936;27.540;2024-03-08T04:48:48;11.02;;;7.05;;
76608;SDS011;65928;53.936;27.540;2024-03-08T04:51:13;14.13;;;7.20;;
76608;SDS011;65928;53.936;27.540;2024-03-08T04:53:40;14.63;;;5.78;;
76608;SDS011;65928;53.936;27.540;2024-03-08T04:56:05;11.13;;;5.80;;
76608;SDS011;65928;53.936;27.540;2024-03-08T04:58:32;11.52;;;6.10;;
76608;SDS011;65928;53.936;27.540;2024-03-08T05:01:00;10.25;;;5.28;;
76608;SDS011;65928;53.936;27.540;2024-03-08T05:03:26;10.18;;;5.40;;
76608;SDS011;65928;53.936;27.540;2024-03-08T05:05:52;8.88;;;5.10;;
76608;SDS011;65928;53.936;27.540;2024-03-08T05:08:18;9.25;;;5.50;;
76608;SDS011;65928;53.936;27.540;2024-03-08T05:10:43;9.13;;;5.88;;
76608;SDS011;65928;53.936;27.540;2024-03-08T05:13:09;10.23;;;5.30;;
76608;SDS011;65928;53.936;27.540;2024-03-08T05:15:34;13.15;;;5.93;;
76608;SDS011;65928;53.936;27.540;2024-03-08T05:18:00;10.93;;;5.95;;
76608;SDS011;65928;53.936;27.540;2024-03-08T05:20:25;12.25;;;6.38;;
76608;SDS011;65928;53.936;27.540;2024-03-08T05:22:51;9.05;;;5.38;;
76608;SDS011;65928;53.936;27.540;2024-03-08T05:25:16;9.40;;;5.80;;
76608;SDS011;65928;53.936;27.540;2024-03-08T05:27:42;10.55;;;5.63;;
76608;SDS011;65928;53.936;27.540;2024-03-08T05:30:08;10.02;;;6.00;;
76608;SDS011;65928;53.936;27.540;2024-03-08T05:32:39;11.23;;;6.13;;
76608;SDS011;65928;53.936;27.540;2024-03-08T05:35:11;9.43;;;5.35;;
76608;SDS011;65928;53.936;27.540;2024-03-08T05:37:37;11.30;;;5.43;;
76608;SDS011;65928;53.936;27.540;2024-03-08T05:40:03;9.93;;;6.03;;
76608;SDS011;65928;53.936;27.540;2024-03-08T05:42:33;10.43;;;7.18;;
76608;SDS011;65928;53.936;27.540;2024-03-08T05:44:59;10.93;;;6.30;;
76608;SDS011;65928;53.936;27.540;2024-03-08T05:47:24;10.88;;;7.22;;
76608;SDS011;65928;53.936;27.540;2024-03-08T05:49:49;13.52;;;7.30;;
76608;SDS011;65928;53.936;27.540;2024-03-08T05:52:15;14.18;;;7.15;;
76608;SDS011;65928;53.936;27.540;2024-03-08T05:54:40;9.32;;;6.53;;
76608;SDS011;65928;53.936;27.540;2024-03-08T05:57:06;11.13;;;5.75;;
76608;SDS011;65928;53.936;27.540;2024-03-08T05:59:31;12.45;;;6.75;;
76608;SDS011;65928;53.936;27.540;2024-03-08T06:01:57;10.00;;;5.65;;
76608;SDS011;65928;53.936;27.540;2024-03-08T06:04:22;13.77;;;7.40;;
76608;SDS011;65928;53.936;27.540;2024-03-08T06:06:48;11.20;;;6.40;;
76608;SDS011;65928;53.936;27.540;2024-03-08T06:09:13;11.55;;;7.30;;
76608;SDS011;65928;53.936;27.540;2024-03-08T06:11:42;7.07;;;5.25;;
76608;SDS011;65928;53.936;27.540;2024-03-08T06:14:08;10.88;;;6.15;;
76608;SDS011;65928;53.936;27.540;2024-03-08T06:16:33;7.85;;;4.78;;
76608;SDS011;65928;53.936;27.540;2024-03-08T06:18:58;8.63;;;5.05;;
76608;SDS011;65928;53.936;27.540;2024-03-08T06:21:27;12.40;;;7.03;;
76608;SDS011;65928;53.936;27.540;2024-03-08T06:23:53;8.45;;;5.15;;
76608;SDS011;65928;53.936;27.540;2024-03-08T06:26:20;9.93;;;6.47;;
76608;SDS011;65928;53.936;27.540;2024-03-08T06:28:47;9.73;;;6.55;;
76608;SDS011;65928;53.936;27.540;2024-03-08T06:31:13;8.52;;;4.43;;
76608;SDS011;65928;53.936;27.540;2024-03-08T06:33:39;12.23;;;5.28;;
76608;SDS011;65928;53.936;27.540;2024-03-08T06:36:05;9.13;;;5.32;;
76608;SDS011;65928;53.936;27.540;2024-03-08T06:38:30;14.38;;;7.20;;
76608;SDS011;65928;53.936;27.540;2024-03-08T06:40:56;12.45;;;8.20;;
76608;SDS011;65928;53.936;27.540;2024-03-08T06:43:21;11.43;;;8.07;;
76608;SDS011;65928;53.936;27.540;2024-03-08T06:45:47;11.50;;;7.40;;
76608;SDS011;65928;53.936;27.540;2024-03-08T06:48:18;14.40;;;7.57;;
76608;SDS011;65928;53.936;27.540;2024-03-08T06:50:43;11.25;;;6.20;;
76608;SDS011;65928;53.936;27.540;2024-03-08T06:53:10;19.85;;;11.07;;
76608;SDS011;65928;53.936;27.540;2024-03-08T06:55:36;13.15;;;6.97;;
76608;SDS011;65928;53.936;27.540;2024-03-08T06:58:01;9.25;;;4.88;;
76608;SDS011;65928;53.936;27.540;2024-03-08T07:00:27;9.75;;;7.22;;
76608;SDS011;65928;53.936;27.540;2024-03-08T07:02:54;13.23;;;8.65;;
76608;SDS011;65928;53.936;27.540;2024-03-08T07:05:19;15.00;;;8.27;;
76608;SDS011;65928;53.936;27.540;2024-03-08T07:07:45;11.23;;;5.72;;
76608;SDS011;65928;53.936;27.540;2024-03-08T07:10:13;13.77;;;7.80;;
76608;SDS011;65928;53.936;27.540;2024-03-08T07:12:40;12.27;;;7.60;;
76608;SDS011;65928;53.936;27.540;2024-03-08T07:15:06;15.02;;;8.02;;
76608;SDS011;65928;53.936;27.540;2024-03-08T07:17:32;12.32;;;7.97;;
76608;SDS011;65928;53.936;27.540;2024-03-08T07:19:59;11.63;;;6.90;;
76608;SDS011;65928;53.936;27.540;2024-03-08T07:22:27;10.73;;;6.93;;
76608;SDS011;65928;53.936;27.540;2024-03-08T07:24:52;21.25;;;12.57;;
76608;SDS011;65928;53.936;27.540;2024-03-08T07:27:44;12.50;;;6.68;;
76608;SDS011;65928;53.936;27.540;2024-03-08T07:30:11;10.98;;;6.75;;
76608;SDS011;65928;53.936;27.540;2024-03-08T07:32:36;11.13;;;6.75;;
76608;SDS011;65928;53.936;27.540;2024-03-08T07:35:03;8.75;;;5.95;;
76608;SDS011;65928;53.936;27.540;2024-03-08T07:37:28;15.73;;;7.90;;
76608;SDS011;65928;53.936;27.540;2024-03-08T07:39:54;17.30;;;11.05;;
76608;SDS011;65928;53.936;27.540;2024-03-08T07:42:19;15.25;;;7.75;;
76608;SDS011;65928;53.936;27.540;2024-03-08T07:44:46;18.02;;;9.80;;
76608;SDS011;65928;53.936;27.540;2024-03-08T07:47:13;13.52;;;8.85;;
76608;SDS011;65928;53.936;27.540;2024-03-08T07:49:38;11.25;;;6.18;;
76608;SDS011;65928;53.936;27.540;2024-03-08T07:52:04;12.38;;;6.68;;
76608;SDS011;65928;53.936;27.540;2024-03-08T07:54:30;10.98;;;5.65;;
76608;SDS011;65928;53.936;27.540;2024-03-08T07:56:56;8.05;;;4.80;;
76608;SDS011;65928;53.936;27.540;2024-03-08T07:59:21;7.10;;;5.43;;
76608;SDS011;65928;53.936;27.540;2024-03-08T08:01:47;16.17;;;8.68;;
76608;SDS011;65928;53.936;27.540;2024-03-08T08:04:12;9.52;;;5.82;;
76608;SDS011;65928;53.936;27.540;2024-03-08T08:06:39;11.13;;;6.43;;
76608;SDS011;65928;53.936;27.540;2024-03-08T08:09:07;12.10;;;5.95;;
76608;SDS011;65928;53.936;27.540;2024-03-08T08:11:40;14.60;;;7.63;;
76608;SDS011;65928;53.936;27.540;2024-03-08T08:14:08;8.90;;;5.40;;
76608;SDS011;65928;53.936;27.540;2024-03-08T08:16:35;14.70;;;7.40;;
76608;SDS011;65928;53.936;27.540;2024-03-08T08:19:01;10.10;;;6.35;;
76608;SDS011;65928;53.936;27.540;2024-03-08T08:21:30;12.45;;;6.05;;
76608;SDS011;65928;53.936;27.540;2024-03-08T08:23:56;9.43;;;5.18;;
76608;SDS011;65928;53.936;27.540;2024-03-08T08:26:21;9.50;;;5.20;;
76608;SDS011;65928;53.936;27.540;2024-03-08T08:28:47;11.02;;;5.75;;
76608;SDS011;65928;53.936;27.540;2024-03-08T08:31:12;8.63;;;5.25;;
76608;SDS011;65928;53.936;27.540;2024-03-08T08:33:38;11.30;;;5.22;;
76608;SDS011;65928;53.936;27.540;2024-03-08T08:36:03;6.72;;;3.80;;
76608;SDS011;65928;53.936;27.540;2024-03-08T08:38:29;8.27;;;5.03;;
76608;SDS011;65928;53.936;27.540;2024-03-08T08:40:54;11.68;;;6.15;;
76608;SDS011;65928;53.936;27.540;2024-03-08T08:43:21;6.65;;;3.75;;
76608;SDS011;65928;53.936;27.540;2024-03-08T08:45:49;5.85;;;3.92;;
76608;SDS011;65928;53.936;27.540;2024-03-08T08:48:18;12.07;;;6.40;;
76608;SDS011;65928;53.936;27.540;2024-03-08T08:50:43;13.65;;;6.22;;
76608;SDS011;65928;53.936;27.540;2024-03-08T08:53:10;7.50;;;3.95;;
76608;SDS011;65928;53.936;27.540;2024-03-08T08:55:35;8.10;;;4.60;;
76608;SDS011;65928;53.936;27.540;2024-03-08T08:58:01;5.63;;;3.22;;
76608;SDS011;65928;53.936;27.540;2024-03-08T09:00:28;6.90;;;3.60;;
76608;SDS011;65928;53.936;27.540;2024-03-08T09:02:56;4.93;;;2.72;;
76608;SDS011;65928;53.936;27.540;2024-03-08T09:05:22;8.45;;;4.47;;
76608;SDS011;65928;53.936;27.540;2024-03-08T09:07:49;8.23;;;4.93;;
76608;SDS011;65928;53.936;27.540;2024-03-08T09:10:15;7.15;;;3.70;;
76608;SDS011;65928;53.936;27.540;2024-03-08T09:12:40;3.78;;;2.22;;
76608;SDS011;65928;53.936;27.540;2024-03-08T09:15:06;6.50;;;3.63;;
76608;SDS011;65928;53.936;27.540;2024-03-08T09:17:33;4.78;;;2.70;;
76608;SDS011;65928;53.936;27.540;2024-03-08T09:19:59;8.07;;;3.10;;
76608;SDS011;65928;53.936;27.540;2024-03-08T09:22:24;8.82;;;4.60;;
76608;SDS011;65928;53.936;27.540;2024-03-08T09:24:50;8.43;;;4.22;;
76608;SDS011;65928;53.936;27.540;2024-03-08T09:27:15;7.43;;;3.75;;
76608;SDS011;65928;53.936;27.540;2024-03-08T09:29:41;8.10;;;4.13;;
76608;SDS011;65928;53.936;27.540;2024-03-08T09:32:06;9.23;;;3.47;;
76608;SDS011;65928;53.936;27.540;2024-03-08T09:34:32;5.80;;;3.40;;
76608;SDS011;65928;53.936;27.540;2024-03-08T09:36:57;5.15;;;3.40;;
76608;SDS011;65928;53.936;27.540;2024-03-08T09:39:23;7.85;;;3.83;;
76608;SDS011;65928;53.936;27.540;2024-03-08T09:41:48;7.38;;;3.10;;
76608;SDS011;65928;53.936;27.540;2024-03-08T09:44:14;7.15;;;4.28;;
76608;SDS011;65928;53.936;27.540;2024-03-08T09:46:40;6.03;;;3.20;;
76608;SDS011;65928;53.936;27.540;2024-03-08T09:49:06;5.85;;;3.88;;
76608;SDS011;65928;53.936;27.540;2024-03-08T09:51:33;9.15;;;3.97;;
76608;SDS011;65928;53.936;27.540;2024-03-08T09:54:00;5.70;;;3.42;;
76608;SDS011;65928;53.936;27.540;2024-03-08T09:56:29;4.90;;;3.15;;
76608;SDS011;65928;53.936;27.540;2024-03-08T09:58:57;6.43;;;3.53;;
76608;SDS011;65928;53.936;27.540;2024-03-08T10:01:41;6.90;;;2.72;;
76608;SDS011;65928;53.936;27.540;2024-03-08T10:04:07;6.82;;;4.53;;
76608;SDS011;65928;53.936;27.540;2024-03-08T10:06:32;12.52;;;6.68;;
76608;SDS011;65928;53.936;27.540;2024-03-08T10:08:57;7.35;;;4.20;;
76608;SDS011;65928;53.936;27.540;2024-03-08T10:11:26;13.40;;;7.28;;
76608;SDS011;65928;53.936;27.540;2024-03-08T10:13:52;8.05;;;4.53;;
76608;SDS011;65928;53.936;27.540;2024-03-08T10:16:17;4.70;;;3.15;;
76608;SDS011;65928;53.936;27.540;2024-03-08T10:18:44;3.10;;;1.98;;
76608;SDS011;65928;53.936;27.540;2024-03-08T10:21:10;5.70;;;2.70;;
76608;SDS011;65928;53.936;27.540;2024-03-08T10:23:36;4.70;;;2.58;;
76608;SDS011;65928;53.936;27.540;2024-03-08T10:28:39;5.32;;;3.45;;
76608;SDS011;65928;53.936;27.540;2024-03-08T10:31:08;6.85;;;3.95;;
76608;SDS011;65928;53.936;27.540;2024-03-08T10:33:34;5.93;;;2.50;;
76608;SDS011;65928;53.936;27.540;2024-03-08T10:35:59;6.78;;;3.72;;
76608;SDS011;65928;53.936;27.540;2024-03-08T10:38:25;8.35;;;3.95;;
76608;SDS011;65928;53.936;27.540;2024-03-08T10:40:51;5.13;;;2.53;;
76608;SDS011;65928;53.936;27.540;2024-03-08T10:43:22;6.13;;;2.72;;
76608;SDS011;65928;53.936;27.540;2024-03-08T10:45:50;8.30;;;4.43;;
76608;SDS011;65928;53.936;27.540;2024-03-08T10:48:27;5.50;;;3.22;;
76608;SDS011;65928;53.936;27.540;2024-03-08T10:50:59;7.43;;;3.95;;
76608;SDS011;65928;53.936;27.540;2024-03-08T10:53:27;9.98;;;3.80;;
76608;SDS011;65928;53.936;27.540;2024-03-08T10:55:54;6.20;;;2.88;;
76608;SDS011;65928;53.936;27.540;2024-03-08T10:58:21;8.30;;;4.78;;
76608;SDS011;65928;53.936;27.540;2024-03-08T11:00:47;6.22;;;3.33;;
76608;SDS011;65928;53.936;27.540;2024-03-08T11:06:13;5.63;;;3.20;;
76608;SDS011;65928;53.936;27.540;2024-03-08T11:08:40;6.07;;;3.55;;
76608;SDS011;65928;53.936;27.540;2024-03-08T11:11:09;5.63;;;3.55;;
76608;SDS011;65928;53.936;27.540;2024-03-08T11:13:52;5.68;;;2.92;;
76608;SDS011;65928;53.936;27.540;2024-03-08T11:19:00;6.13;;;3.17;;
76608;SDS011;65928;53.936;27.540;2024-03-08T11:21:30;7.38;;;4.28;;
76608;SDS011;65928;53.936;27.540;2024-03-08T11:23:59;7.15;;;4.13;;
76608;SDS011;65928;53.936;27.540;2024-03-08T11:26:25;7.13;;;2.97;;
76608;SDS011;65928;53.936;27.540;2024-03-08T11:28:51;5.18;;;2.67;;
76608;SDS011;65928;53.936;27.540;2024-03-08T11:33:46;3.65;;;1.77;;
76608;SDS011;65928;53.936;27.540;2024-03-08T11:36:12;4.18;;;2.28;;
76608;SDS011;65928;53.936;27.540;2024-03-08T11:38:45;6.57;;;3.50;;
76608;SDS011;65928;53.936;27.540;2024-03-08T11:41:13;7.13;;;3.40;;
76608;SDS011;65928;53.936;27.540;2024-03-08T11:43:39;6.68;;;2.90;;
76608;SDS011;65928;53.936;27.540;2024-03-08T11:46:13;5.55;;;2.72;;
76608;SDS011;65928;53.936;27.540;2024-03-08T11:48:42;4.30;;;2.40;;
76608;SDS011;65928;53.936;27.540;2024-03-08T11:51:09;4.60;;;2.20;;
76608;SDS011;65928;53.936;27.540;2024-03-08T11:53:36;6.03;;;2.35;;
76608;SDS011;65928;53.936;27.540;2024-03-08T11:56:09;4.05;;;2.20;;
76608;SDS011;65928;53.936;27.540;2024-03-08T11:58:36;5.03;;;3.22;;
76608;SDS011;65928;53.936;27.540;2024-03-08T12:01:02;6.00;;;3.20;;
76608;SDS011;65928;53.936;27.540;2024-03-08T12:03:32;6.47;;;2.75;;
76608;SDS011;65928;53.936;27.540;2024-03-08T12:06:02;7.28;;;4.10;;
76608;SDS011;65928;53.936;27.540;2024-03-08T12:08:30;5.88;;;3.38;;
76608;SDS011;65928;53.936;27.540;2024-03-08T12:10:55;5.65;;;2.90;;
76608;SDS011;65928;53.936;27.540;2024-03-08T12:13:28;2.67;;;1.40;;
76608;SDS011;65928;53.936;27.540;2024-03-08T12:15:59;5.32;;;2.53;;
76608;SDS011;65928;53.936;27.540;2024-03-08T12:18:25;4.15;;;2.63;;
76608;SDS011;65928;53.936;27.540;2024-03-08T12:21:03;6.32;;;2.83;;
76608;SDS011;65928;53.936;27.540;2024-03-08T12:23:29;3.80;;;2.22;;
76608;SDS011;65928;53.936;27.540;2024-03-08T12:25:55;8.23;;;2.53;;
76608;SDS011;65928;53.936;27.540;2024-03-08T12:28:22;5.15;;;3.30;;
76608;SDS011;65928;53.936;27.540;2024-03-08T12:30:48;6.97;;;3.22;;
76608;SDS011;65928;53.936;27.540;2024-03-08T12:33:15;7.05;;;3.22;;
76608;SDS011;65928;53.936;27.540;2024-03-08T12:35:49;6.57;;;3.35;;
76608;SDS011;65928;53.936;27.540;2024-03-08T12:38:15;6.45;;;2.70;;
76608;SDS011;65928;53.936;27.540;2024-03-08T12:40:41;4.07;;;2.25;;
76608;SDS011;65928;53.936;27.540;2024-03-08T12:43:07;6.65;;;2.88;;
76608;SDS011;65928;53.936;27.540;2024-03-08T12:45:32;8.27;;;2.97;;
76608;SDS011;65928;53.936;27.540;2024-03-08T12:47:58;5.85;;;3.30;;
76608;SDS011;65928;53.936;27.540;2024-03-08T12:50:24;6.10;;;3.65;;
76608;SDS011;65928;53.936;27.540;2024-03-08T12:52:50;8.95;;;4.15;;
76608;SDS011;65928;53.936;27.540;2024-03-08T12:55:17;6.05;;;3.70;;
76608;SDS011;65928;53.936;27.540;2024-03-08T12:57:43;5.65;;;3.67;;
76608;SDS011;65928;53.936;27.540;2024-03-08T13:00:09;7.10;;;3.33;;
76608;SDS011;65928;53.936;27.540;2024-03-08T13:02:38;4.75;;;2.67;;
76608;SDS011;65928;53.936;27.540;2024-03-08T13:05:04;5.10;;;3.17;;
76608;SDS011;65928;53.936;27.540;2024-03-08T13:07:30;6.03;;;2.85;;
76608;SDS011;65928;53.936;27.540;2024-03-08T13:09:56;5.28;;;3.25;;
76608;SDS011;65928;53.936;27.540;2024-03-08T13:12:24;5.45;;;2.67;;
76608;SDS011;65928;53.936;27.540;2024-03-08T13:14:50;4.20;;;2.53;;
76608;SDS011;65928;53.936;27.540;2024-03-08T13:17:16;6.60;;;4.18;;
76608;SDS011;65928;53.936;27.540;2024-03-08T13:19:43;5.25;;;2.97;;
76608;SDS011;65928;53.936;27.540;2024-03-08T13:22:09;6.18;;;3.72;;
76608;SDS011;65928;53.936;27.540;2024-03-08T13:24:41;5.57;;;3.47;;
76608;SDS011;65928;53.936;27.540;2024-03-08T13:27:08;5.72;;;2.90;;
76608;SDS011;65928;53.936;27.540;2024-03-08T13:29:44;5.82;;;3.10;;
76608;SDS011;65928;53.936;27.540;2024-03-08T13:32:18;10.02;;;4.72;;
76608;SDS011;65928;53.936;27.540;2024-03-08T13:34:45;7.40;;;3.80;;
76608;SDS011;65928;53.936;27.540;2024-03-08T13:37:12;6.60;;;3.92;;
76608;SDS011;65928;53.936;27.540;2024-03-08T13:39:41;7.75;;;4.30;;
76608;SDS011;65928;53.936;27.540;2024-03-08T13:42:11;5.53;;;3.47;;
76608;SDS011;65928;53.936;27.540;2024-03-08T13:47:13;4.47;;;3.38;;
76608;SDS011;65928;53.936;27.540;2024-03-08T13:49:39;8.02;;;2.88;;
76608;SDS011;65928;53.936;27.540;2024-03-08T13:52:05;6.03;;;2.60;;
76608;SDS011;65928;53.936;27.540;2024-03-08T13:54:31;5.88;;;1.88;;
76608;SDS011;65928;53.936;27.540;2024-03-08T13:56:57;5.25;;;2.47;;
76608;SDS011;65928;53.936;27.540;2024-03-08T13:59:23;4.90;;;2.35;;
76608;SDS011;65928;53.936;27.540;2024-03-08T14:01:49;3.88;;;2.38;;
76608;SDS011;65928;53.936;27.540;2024-03-08T14:04:14;6.82;;;2.97;;
76608;SDS011;65928;53.936;27.540;2024-03-08T14:06:42;4.53;;;1.88;;
76608;SDS011;65928;53.936;27.540;2024-03-08T14:09:10;5.10;;;2.88;;
76608;SDS011;65928;53.936;27.540;2024-03-08T14:11:41;3.77;;;1.90;;
76608;SDS011;65928;53.936;27.540;2024-03-08T14:14:07;4.43;;;2.28;;
76608;SDS011;65928;53.936;27.540;2024-03-08T14:16:34;4.90;;;2.65;;
76608;SDS011;65928;53.936;27.540;2024-03-08T14:19:02;7.93;;;3.40;;
76608;SDS011;65928;53.936;27.540;2024-03-08T14:21:30;6.32;;;3.65;;
76608;SDS011;65928;53.936;27.540;2024-03-08T14:23:58;5.20;;;3.03;;
76608;SDS011;65928;53.936;27.540;2024-03-08T14:26:24;7.95;;;2.83;;
76608;SDS011;65928;53.936;27.540;2024-03-08T14:28:49;3.65;;;2.30;;
76608;SDS011;65928;53.936;27.540;2024-03-08T14:31:19;4.65;;;2.08;;
76608;SDS011;65928;53.936;27.540;2024-03-08T14:33:45;6.00;;;2.90;;
76608;SDS011;65928;53.936;27.540;2024-03-08T14:36:14;5.05;;;2.95;;
76608;SDS011;65928;53.936;27.540;2024-03-08T14:38:42;7.15;;;4.88;;